Time;durP1;ratioP1;P1;durP2;ratioP2;P2;SDS_P1;SDS_P2;PMS_P1;PMS_P2;Temp;Humidity;BMP_temperature;BMP_pressure;BME280_temperature;BME280_humidity;BME280_pressure;Samples;Min_cycle;Max_cycle;Signal;HPM_P1;HPM_P2
2023/10/12 00:02:04;;;;;;;9.83;4.30;;;;;;;22.57;84.66;96243.13;6270442;22;20003;-84
2023/10/12 00:07:33;;;;;;;13.80;5.60;;;;;;;22.67;83.13;96239.00;6270864;22;20033;-84
2023/10/12 00:12:35;;;;;;;15.20;5.20;;;;;;;22.72;83.59;96237.25;6270211;22;20091;-84
2023/10/12 00:15:22;;;;;;;10.43;4.03;;;;;;;22.88;82.35;96240.28;6244776;22;20068;-84
2023/10/12 00:17:51;;;;;;;14.23;4.88;;;;;;;22.83;83.64;96236.41;6243982;22;20007;-83
2023/10/12 00:22:58;;;;;;;10.20;4.57;;;;;;;22.74;84.52;96235.19;6270026;22;20034;-84
2023/10/12 00:25:33;;;;;;;11.88;4.97;;;;;;;22.65;83.98;96231.22;6245162;22;20498;-83
2023/10/12 00:27:59;;;;;;;14.07;5.38;;;;;;;22.56;85.55;96235.31;6244078;22;20018;-83
2023/10/12 00:30:24;;;;;;;13.90;4.60;;;;;;;22.46;86.45;96233.22;6245716;22;20007;-83
2023/10/12 00:32:51;;;;;;;13.38;4.68;;;;;;;22.71;84.04;96235.66;6244016;22;20007;-84
2023/10/12 00:35:17;;;;;;;12.87;4.50;;;;;;;22.61;85.23;96229.25;6243598;22;20007;-84
2023/10/12 00:37:43;;;;;;;10.63;4.53;;;;;;;22.91;83.36;96223.72;6244405;22;20381;-83
2023/10/12 00:42:59;;;;;;;9.40;4.32;;;;;;;22.61;84.51;96230.06;6270336;22;20446;-83
2023/10/12 00:45:29;;;;;;;17.30;4.90;;;;;;;22.49;87.09;96215.84;6244859;22;20007;-84
2023/10/12 00:48:08;;;;;;;11.02;4.97;;;;;;;22.71;83.69;96224.91;6280254;22;20062;-84
2023/10/12 00:50:37;;;;;;;10.75;4.80;;;;;;;22.73;82.67;96222.00;6245514;22;20007;-84
2023/10/12 00:53:22;;;;;;;10.75;4.78;;;;;;;22.88;81.68;96218.81;6245875;22;20007;-84
2023/10/12 00:55:50;;;;;;;14.48;4.63;;;;;;;22.67;85.53;96220.25;6245306;22;20019;-84
2023/10/12 00:58:17;;;;;;;13.63;4.50;;;;;;;22.90;81.17;96212.16;6245146;22;20031;-84
2023/10/12 01:00:46;;;;;;;9.68;4.57;;;;;;;22.88;81.00;96208.91;6243813;22;20312;-83
2023/10/12 01:06:18;;;;;;;9.18;4.15;;;;;;;22.48;83.04;96209.69;6271914;22;20014;-83
2023/10/12 01:08:43;;;;;;;13.52;4.60;;;;;;;22.32;87.11;96203.16;6246972;22;20034;-83
2023/10/12 01:11:21;;;;;;;10.88;4.18;;;;;;;22.32;85.91;96208.53;6246468;22;20057;-84
2023/10/12 01:14:09;;;;;;;9.63;4.40;;;;;;;21.95;91.95;96199.06;6245383;22;20491;-84
2023/10/12 01:16:43;;;;;;;10.13;4.53;;;;;;;22.20;88.02;96205.06;6246774;22;20010;-84
2023/10/12 01:19:09;;;;;;;11.90;4.70;;;;;;;22.54;85.23;96202.59;6245776;22;20003;-84
2023/10/12 01:21:36;;;;;;;11.87;4.47;;;;;;;22.58;85.05;96203.72;6246451;22;20479;-84
2023/10/12 01:24:11;;;;;;;13.05;4.40;;;;;;;22.54;84.45;96205.25;6246461;22;20021;-83
2023/10/12 01:26:49;;;;;;;11.25;4.60;;;;;;;22.41;85.91;96202.81;6247321;22;20442;-83
2023/10/12 01:29:22;;;;;;;10.57;4.13;;;;;;;22.27;86.91;96192.34;6247565;22;20007;-83
2023/10/12 01:32:08;;;;;;;9.57;3.58;;;;;;;22.62;83.01;96191.47;6247069;22;20015;-84
2023/10/12 01:34:38;;;;;;;10.57;4.70;;;;;;;22.19;86.87;96195.38;6245236;22;20007;-84
2023/10/12 01:37:11;;;;;;;9.52;4.93;;;;;;;22.27;84.79;96202.25;6246358;22;20090;-83
2023/10/12 01:39:39;;;;;;;11.43;4.63;;;;;;;22.52;84.30;96196.63;6247284;22;20011;-83
2023/10/12 01:42:06;;;;;;;8.30;4.40;;;;;;;22.63;83.44;96193.09;6246528;22;20005;-83
2023/10/12 01:44:32;;;;;;;9.43;4.33;;;;;;;22.66;81.96;96206.03;6246450;22;20077;-83
2023/10/12 01:46:58;;;;;;;10.73;5.25;;;;;;;22.34;84.74;96203.75;6245912;22;20397;-83
2023/10/12 01:49:24;;;;;;;14.97;4.80;;;;;;;22.16;85.08;96203.88;6245761;22;20003;-84
2023/10/12 01:51:49;;;;;;;10.77;4.43;;;;;;;22.76;83.09;96206.25;6246929;22;20010;-83
2023/10/12 01:54:24;;;;;;;13.17;4.67;;;;;;;22.78;81.32;96206.84;6247404;22;20007;-83
2023/10/12 01:56:55;;;;;;;12.77;4.53;;;;;;;23.02;78.71;96206.81;6272194;22;20011;-83
2023/10/12 01:59:25;;;;;;;11.37;4.53;;;;;;;22.72;82.34;96202.41;6247482;22;20385;-84
2023/10/12 02:02:06;;;;;;;11.13;4.67;;;;;;;22.49;84.85;96205.94;6249326;22;20034;-83
2023/10/12 02:04:32;;;;;;;9.93;4.57;;;;;;;22.11;88.11;96203.72;6249713;22;20423;-83
2023/10/12 02:06:58;;;;;;;12.67;5.03;;;;;;;22.13;87.30;96202.47;6250280;22;20010;-84
2023/10/12 02:09:23;;;;;;;10.90;4.50;;;;;;;22.19;86.32;96199.91;6250340;22;20296;-83
2023/10/12 02:11:55;;;;;;;14.60;5.00;;;;;;;22.23;86.60;96198.41;6251451;22;20346;-84
2023/10/12 02:17:10;;;;;;;13.03;5.63;;;;;;;21.97;87.90;96199.66;6263027;22;20007;-84
2023/10/12 02:22:05;;;;;;;12.87;6.17;;;;;;;21.92;90.89;96194.16;6275958;22;20011;-83
2023/10/12 02:24:35;;;;;;;13.50;5.73;;;;;;;21.94;88.33;96192.91;6250492;22;20278;-84
2023/10/12 02:27:01;;;;;;;10.57;5.50;;;;;;;21.99;89.04;96194.88;6250321;22;19999;-83
2023/10/12 02:29:28;;;;;;;13.47;5.07;;;;;;;22.23;87.27;96196.56;6251323;22;20015;-83
2023/10/12 02:32:15;;;;;;;12.60;4.67;;;;;;;21.64;92.89;96190.31;6251860;22;19995;-83
2023/10/12 02:34:43;;;;;;;13.70;4.40;;;;;;;22.47;85.69;96192.00;6284683;22;20399;-83
2023/10/12 02:39:38;;;;;;;10.00;5.37;;;;;;;22.68;82.70;96187.88;6277185;22;20033;-84
2023/10/12 02:47:24;;;;;;;10.20;4.97;;;;;;;22.64;84.97;96201.97;6276632;22;20453;-84
2023/10/12 02:49:51;;;;;;;11.90;4.67;;;;;;;21.56;92.46;96194.13;6249825;22;19999;-84
2023/10/12 02:52:19;;;;;;;11.07;5.07;;;;;;;21.76;90.77;96201.81;6250511;22;20202;-84
2023/10/12 02:54:51;;;;;;;13.87;5.30;;;;;;;21.89;90.44;96190.09;6244478;22;20003;-84
2023/10/12 02:57:25;;;;;;;16.67;5.60;;;;;;;22.32;86.64;96194.31;6276104;22;20006;-84
2023/10/12 03:02:33;;;;;;;10.68;5.10;;;;;;;21.98;88.24;96193.25;6301411;22;20003;-83
2023/10/12 03:05:06;;;;;;;8.77;4.47;;;;;;;21.71;90.95;96182.97;6246214;22;20342;-84
2023/10/12 03:07:37;;;;;;;9.65;4.35;;;;;;;22.18;87.67;96188.38;6246716;22;20262;-84
2023/10/12 03:10:07;;;;;;;10.93;5.27;;;;;;;22.26;87.18;96185.34;6245450;22;20059;-83
2023/10/12 03:12:34;;;;;;;10.23;4.70;;;;;;;22.30;86.21;96191.03;6245775;22;20049;-84
2023/10/12 03:15:04;;;;;;;12.77;5.30;;;;;;;22.42;83.65;96189.19;6245826;22;20091;-84
2023/10/12 03:17:34;;;;;;;10.00;5.10;;;;;;;22.71;80.52;96175.84;6245229;22;20021;-83
2023/10/12 03:20:15;;;;;;;11.70;5.27;;;;;;;22.54;82.66;96183.81;6245096;22;19999;-83
2023/10/12 03:22:44;;;;;;;8.33;4.47;;;;;;;21.97;88.69;96187.09;6246268;22;20137;-84
2023/10/12 03:27:54;;;;;;;12.30;5.80;;;;;;;21.84;88.33;96190.78;6271972;22;20006;-84
2023/10/12 03:30:34;;;;;;;9.63;4.70;;;;;;;22.31;87.96;96187.34;6247060;22;20007;-84
2023/10/12 03:33:03;;;;;;;10.93;4.20;;;;;;;22.26;87.72;96190.69;6246220;22;20003;-84
2023/10/12 03:35:34;;;;;;;8.93;4.63;;;;;;;22.05;88.71;96188.59;6244644;22;20030;-84
2023/10/12 03:38:12;;;;;;;11.10;4.93;;;;;;;21.03;97.32;96186.03;6246170;22;20003;-84
2023/10/12 03:40:51;;;;;;;13.67;5.20;;;;;;;21.26;94.91;96180.75;6245507;22;20007;-84
2023/10/12 03:43:26;;;;;;;10.23;4.43;;;;;;;21.91;90.76;96182.66;6247099;22;20474;-84
2023/10/12 03:53:56;;;;;;;9.43;4.53;;;;;;;21.52;93.34;96182.22;6271803;22;20401;-83
2023/10/12 03:56:24;;;;;;;11.07;5.90;;;;;;;21.86;89.26;96179.84;6246813;22;20006;-84
2023/10/12 03:58:59;;;;;;;13.63;5.10;;;;;;;21.81;91.55;96171.69;6245487;22;20303;-84
2023/10/12 04:01:30;;;;;;;11.83;4.73;;;;;;;21.67;92.32;96173.78;6246782;22;20003;-83
2023/10/12 04:04:08;;;;;;;9.57;4.73;;;;;;;21.40;94.52;96171.53;6270536;22;20003;-83
2023/10/12 04:09:31;;;;;;;12.47;5.20;;;;;;;22.36;83.93;96174.84;6271951;22;20433;-83
2023/10/12 04:12:18;;;;;;;19.23;6.50;;;;;;;22.31;87.30;96190.03;6247956;22;20038;-83
2023/10/12 04:15:06;;;;;;;14.70;5.47;;;;;;;22.33;84.03;96186.06;6272913;22;20007;-84
2023/10/12 04:23:44;;;;;;;14.23;5.43;;;;;;;21.36;95.02;96180.22;6273221;22;20011;-83
2023/10/12 04:25:32;;;;;;;9.93;4.23;;;;;;;21.55;91.64;96180.97;6258427;22;20217;-83
2023/10/12 04:36:25;;;;;;;9.50;4.47;;;;;;;21.92;86.90;96189.63;6247422;22;20011;-83
2023/10/12 04:38:58;;;;;;;11.97;4.83;;;;;;;22.10;85.16;96184.19;6247084;22;20007;-82
2023/10/12 04:41:26;;;;;;;;;;;;;;;22.23;85.24;96191.19;6247108;22;20007;-83
2023/10/12 04:44:06;;;;;;;9.10;4.30;;;;;;;22.26;85.82;96192.56;6249206;22;19906;-83
2023/10/12 04:46:47;;;;;;;11.63;4.97;;;;;;;22.30;82.82;96194.56;6251107;22;20014;-83
2023/10/12 04:51:41;;;;;;;11.37;5.60;;;;;;;22.36;83.46;96196.28;6273404;22;20011;-84
2023/10/12 04:54:23;;;;;;;12.23;4.47;;;;;;;22.65;79.77;96199.06;6247806;22;20458;-84
2023/10/12 04:59:31;;;;;;;11.97;4.80;;;;;;;22.51;83.16;96211.09;6274510;22;20071;-85
2023/10/12 05:09:49;;;;;;;10.73;4.67;;;;;;;22.24;81.57;96214.25;6275385;22;20006;-84
2023/10/12 05:12:28;;;;;;;10.13;4.67;;;;;;;22.40;79.83;96203.84;6248917;22;20007;-84
2023/10/12 05:15:19;;;;;;;10.77;4.70;;;;;;;21.80;85.76;96205.69;6274299;22;20099;-85
2023/10/12 05:17:46;;;;;;;10.03;4.17;;;;;;;22.12;83.66;96206.16;6273146;22;20105;-85
2023/10/12 05:20:12;;;;;;;11.43;5.03;;;;;;;21.99;84.02;96206.38;6247689;22;20007;-85
2023/10/12 05:22:38;;;;;;;12.87;4.73;;;;;;;22.25;81.48;96207.03;6248109;22;20082;-85
2023/10/12 05:25:04;;;;;;;11.00;5.03;;;;;;;22.14;82.22;96208.63;6249306;22;20096;-85
2023/10/12 05:27:38;;;;;;;10.03;4.83;;;;;;;22.20;81.32;96218.44;6248788;22;20003;-84
2023/10/12 05:30:15;;;;;;;9.63;4.70;;;;;;;22.10;82.59;96210.16;6249017;22;20445;-85
2023/10/12 05:32:44;;;;;;;10.53;5.10;;;;;;;22.25;79.92;96215.88;6247740;22;20007;-86
2023/10/12 05:35:16;;;;;;;12.80;4.70;;;;;;;22.19;83.52;96214.13;6249119;22;20086;-88
2023/10/12 05:37:48;;;;;;;10.43;4.57;;;;;;;22.67;82.49;96207.69;6251893;22;20031;-88
2023/10/12 05:40:20;;;;;;;19.10;7.75;;;;;;;22.84;82.81;96215.81;6255397;22;20014;-88
2023/10/12 05:43:22;;;;;;;8.50;4.80;;;;;;;22.47;78.82;96218.78;6228615;22;20014;-87
2023/10/12 05:54:27;;;;;;;9.03;5.13;;;;;;;22.78;75.81;96232.84;6221724;23;20031;-91
2023/10/12 05:56:53;;;;;;;10.43;6.10;;;;;;;23.20;74.50;96232.63;6212452;23;20046;-90
2023/10/12 05:59:19;;;;;;;13.03;5.63;;;;;;;23.43;76.58;96231.72;6223370;22;20051;-92
2023/10/12 06:01:51;;;;;;;19.27;6.13;;;;;;;23.70;74.47;96230.06;6267277;22;19994;-92
2023/10/12 06:04:19;;;;;;;17.10;5.87;;;;;;;23.17;73.04;96233.09;6274835;22;20019;-90
2023/10/12 06:06:46;;;;;;;17.27;5.37;;;;;;;23.03;74.59;96228.00;6253459;22;20064;-91
2023/10/12 06:09:13;;;;;;;23.63;5.60;;;;;;;23.71;73.69;96229.03;6278338;22;20007;-89
2023/10/12 06:11:44;;;;;;;12.00;6.55;;;;;;;23.82;72.83;96232.72;6251913;22;20427;-89
2023/10/12 06:14:12;;;;;;;26.57;14.97;;;;;;;23.88;72.04;96236.31;6275510;22;20013;-89
2023/10/12 06:16:40;;;;;;;29.75;17.40;;;;;;;24.03;69.61;96239.22;6304185;22;20022;-89
2023/10/12 06:19:26;;;;;;;18.98;12.57;;;;;;;24.02;70.84;96245.66;6249410;22;20443;-89
2023/10/12 06:21:53;;;;;;;11.70;5.00;;;;;;;23.84;70.92;96237.81;6248485;22;20011;-89
2023/10/12 06:24:44;;;;;;;28.70;10.57;;;;;;;23.62;72.51;96246.56;6249054;22;20021;-89
2023/10/12 06:29:47;;;;;;;17.85;6.28;;;;;;;24.31;68.43;96242.88;6273128;22;20003;-90
2023/10/12 06:32:46;;;;;;;14.20;4.75;;;;;;;24.16;70.08;96255.03;6251263;22;20003;-89
2023/10/12 06:45:52;;;;;;;18.20;5.95;;;;;;;24.87;65.94;96251.75;6276382;22;20026;-88
2023/10/12 06:51:06;;;;;;;10.35;4.70;;;;;;;24.57;70.76;96252.97;6272148;22;20704;-84
2023/10/12 06:58:39;;;;;;;12.68;5.10;;;;;;;24.00;74.53;96242.41;6109155;23;20519;-84
2023/10/12 07:02:20;;;;;;;9.65;4.05;;;;;;;24.41;71.14;96259.19;6097267;23;20443;-84
2023/10/12 07:05:20;;;;;;;12.32;5.75;;;;;;;24.75;71.49;96259.13;6154169;23;20008;-84
2023/10/12 07:12:48;;;;;;;10.85;4.65;;;;;;;24.42;71.11;96258.94;6115340;23;20002;-84
2023/10/12 07:16:09;;;;;;;8.73;4.93;;;;;;;24.56;71.38;96278.25;6118048;23;20009;-84
2023/10/12 07:18:44;;;;;;;12.45;5.03;;;;;;;24.48;72.22;96280.50;6114736;23;20092;-84
2023/10/12 07:21:37;;;;;;;12.15;4.93;;;;;;;24.79;70.77;96279.09;6118245;23;20013;-84
2023/10/12 07:24:29;;;;;;;8.57;4.03;;;;;;;24.80;69.45;96300.34;6108573;23;20392;-84
2023/10/12 07:27:11;;;;;;;12.20;4.95;;;;;;;24.60;71.59;96302.75;6137914;23;20134;-84
2023/10/12 07:30:21;;;;;;;13.48;4.80;;;;;;;24.73;71.61;96302.41;6243406;22;20390;-84
2023/10/12 07:32:59;;;;;;;17.45;4.78;;;;;;;24.36;72.48;96315.53;6246446;22;20064;-84
2023/10/12 07:35:53;;;;;;;12.77;4.28;;;;;;;24.90;68.19;96299.69;6245659;22;20009;-83
2023/10/12 07:38:28;;;;;;;9.48;4.53;;;;;;;24.63;69.57;96294.19;6272079;22;20003;-83
2023/10/12 07:40:56;;;;;;;13.95;5.15;;;;;;;25.00;67.51;96299.81;6248713;22;20088;-84
2023/10/12 07:43:26;;;;;;;11.88;4.97;;;;;;;25.13;66.18;96307.56;6247584;22;20030;-84
2023/10/12 07:45:52;;;;;;;11.30;6.30;;;;;;;25.16;66.42;96304.38;6257730;22;19987;-84
2023/10/12 07:48:40;;;;;;;11.95;5.45;;;;;;;25.30;65.99;96296.72;6249163;22;20029;-83
2023/10/12 07:51:26;;;;;;;13.90;6.32;;;;;;;25.49;66.14;96302.63;6247643;22;20011;-87
2023/10/12 07:54:20;;;;;;;11.13;5.25;;;;;;;25.26;67.03;96308.25;6250320;22;20007;-87
2023/10/12 07:56:40;;;;;;;8.93;5.10;;;;;;;25.60;64.80;96298.97;6272516;22;20094;-85
2023/10/12 07:59:13;;;;;;;12.85;4.63;;;;;;;25.36;65.27;96286.84;6259377;22;20034;-85
2023/10/12 08:01:39;;;;;;;9.55;4.95;;;;;;;25.48;65.54;96287.50;6302095;22;20003;-86
2023/10/12 08:04:19;;;;;;;10.27;5.15;;;;;;;25.37;66.51;96285.78;6254940;22;20015;-86
2023/10/12 08:06:45;;;;;;;9.65;4.78;;;;;;;25.78;64.02;96294.28;6301357;22;20007;-86
2023/10/12 08:09:33;;;;;;;10.68;4.78;;;;;;;26.25;61.78;96304.44;6275435;22;20014;-87
2023/10/12 08:11:59;;;;;;;9.77;4.40;;;;;;;26.40;62.83;96295.69;6300074;22;20042;-88
2023/10/12 08:20:45;;;;;;;9.10;4.70;;;;;;;27.21;60.28;96306.22;6301057;22;20034;-86
2023/10/12 08:22:29;;;;;;;9.63;4.72;;;;;;;27.12;57.38;96302.34;6288523;22;20506;-86
2023/10/12 08:24:59;;;;;;;11.77;4.85;;;;;;;27.89;54.04;96300.78;6274690;22;20027;-86
2023/10/12 08:27:26;;;;;;;11.90;4.82;;;;;;;27.78;54.23;96318.88;6273868;22;20007;-86
2023/10/12 08:37:26;;;;;;;8.75;4.47;;;;;;;27.36;55.97;96300.88;6299774;22;20007;-86
2023/10/12 08:42:36;;;;;;;11.18;4.00;;;;;;;27.11;56.04;96295.34;6300559;22;20030;-86
2023/10/12 08:45:15;;;;;;;11.15;4.80;;;;;;;27.35;55.62;96295.75;6274430;22;20002;-86
2023/10/12 08:47:48;;;;;;;11.23;5.10;;;;;;;27.75;54.89;96289.63;6302297;22;20006;-86
2023/10/12 08:52:50;;;;;;;8.98;4.75;;;;;;;27.63;54.16;96289.91;6301519;22;20007;-86
2023/10/12 08:55:20;;;;;;;9.25;4.35;;;;;;;27.67;54.84;96287.47;6274803;22;20035;-87
2023/10/12 08:58:12;;;;;;;8.52;4.28;;;;;;;27.41;53.80;96287.38;6276638;22;19995;-87
2023/10/12 09:00:40;;;;;;;12.18;4.53;;;;;;;27.44;54.54;96289.56;6276799;22;20344;-86
2023/10/12 09:05:51;;;;;;;8.00;3.85;;;;;;;27.58;54.03;96299.88;6301580;22;20045;-86
2023/10/12 09:11:00;;;;;;;10.95;5.20;;;;;;;27.80;53.33;96297.81;6302648;22;20105;-87
2023/10/12 09:13:34;;;;;;;13.63;5.05;;;;;;;27.53;54.75;96310.66;6275087;22;20011;-85
2023/10/12 09:16:02;;;;;;;9.80;4.10;;;;;;;27.63;54.31;96307.97;6275335;22;20003;-87
2023/10/12 09:18:43;;;;;;;11.10;4.35;;;;;;;27.40;56.42;96304.69;6302979;22;20007;-86
2023/10/12 09:26:34;;;;;;;10.43;4.70;;;;;;;26.86;56.64;96309.50;6319153;22;20039;-86
2023/10/12 09:36:55;;;;;;;11.90;6.53;;;;;;;27.57;54.62;96300.97;6311452;22;20003;-86
2023/10/12 09:39:27;;;;;;;15.23;4.70;;;;;;;27.18;55.20;96304.84;6293697;22;20007;-86
2023/10/12 09:41:55;;;;;;;15.07;5.60;;;;;;;27.24;55.62;96306.50;6295541;22;20350;-86
2023/10/12 09:44:28;;;;;;;14.93;5.28;;;;;;;26.79;57.14;96304.31;6264666;22;20003;-85
2023/10/12 09:46:59;;;;;;;;;;;;;;;27.06;55.95;96308.78;6311131;22;20496;-85
2023/10/12 09:49:29;;;;;;;18.98;5.53;;;;;;;26.55;56.51;96301.19;6276661;22;19906;-85
2023/10/12 09:52:13;;;;;;;10.00;4.95;;;;;;;26.91;56.30;96298.75;6303780;22;20465;-85
2023/10/12 09:55:07;;;;;;;9.30;5.07;;;;;;;26.92;56.03;96297.66;6278879;22;20011;-85
2023/10/12 09:57:36;;;;;;;13.70;5.35;;;;;;;27.00;55.41;96303.38;6277689;22;20014;-85
2023/10/12 10:00:18;;;;;;;8.93;4.65;;;;;;;27.27;54.77;96299.75;6277716;22;20053;-85
2023/10/12 10:02:49;;;;;;;11.60;5.95;;;;;;;27.02;55.68;96297.72;6303828;22;20431;-84
2023/10/12 10:07:53;;;;;;;11.40;4.93;;;;;;;28.17;52.50;96291.38;6303808;22;20335;-83
2023/10/12 10:10:57;;;;;;;14.02;5.05;;;;;;;27.80;53.45;96295.09;6280456;22;20048;-87
2023/10/12 10:13:41;;;;;;;13.55;5.13;;;;;;;27.71;53.03;96297.47;6296081;22;20358;-85
2023/10/12 10:16:09;;;;;;;13.82;4.38;;;;;;;27.71;52.94;96293.97;6293457;22;20007;-86
2023/10/12 10:18:46;;;;;;;10.10;4.53;;;;;;;28.39;52.13;96289.22;6302768;22;20034;-85
2023/10/12 10:21:15;;;;;;;15.27;5.03;;;;;;;27.58;51.26;96289.06;6277860;22;19999;-85
2023/10/12 10:23:48;;;;;;;12.90;5.50;;;;;;;28.07;50.47;96294.88;6304584;22;20023;-86
2023/10/12 10:26:23;;;;;;;10.70;4.78;;;;;;;28.32;49.82;96279.72;6281961;22;20003;-86
2023/10/12 10:28:55;;;;;;;16.92;5.60;;;;;;;28.32;49.82;96287.84;6304113;22;20019;-86
2023/10/12 10:31:28;;;;;;;12.40;5.35;;;;;;;27.87;49.54;96284.84;6279618;22;19999;-86
2023/10/12 10:33:58;;;;;;;11.60;5.75;;;;;;;27.74;49.90;96288.03;6276638;22;20006;-85
2023/10/12 10:36:34;;;;;;;10.80;5.25;;;;;;;27.92;49.87;96284.03;6276181;22;20431;-86
2023/10/12 10:39:08;;;;;;;9.02;4.60;;;;;;;28.62;48.56;96281.63;6279730;22;20082;-86
2023/10/12 10:44:16;;;;;;;13.02;4.80;;;;;;;28.70;48.22;96289.16;6303522;22;20363;-85
2023/10/12 10:46:45;;;;;;;11.25;4.97;;;;;;;29.11;47.89;96286.41;6303075;22;20003;-86
2023/10/12 10:49:15;;;;;;;9.63;4.97;;;;;;;28.31;49.12;96283.53;6276431;22;20011;-86
2023/10/12 10:54:37;;;;;;;11.40;5.07;;;;;;;28.42;49.31;96275.16;6302899;22;20037;-85
2023/10/12 10:57:24;;;;;;;8.70;4.70;;;;;;;28.93;48.67;96284.25;6277874;22;20803;-88
2023/10/12 10:59:51;;;;;;;11.52;4.70;;;;;;;28.40;48.47;96293.56;6277996;22;20007;-86
2023/10/12 11:02:18;;;;;;;11.00;5.95;;;;;;;29.52;46.88;96287.03;6278183;22;20006;-86
2023/10/12 11:04:46;;;;;;;12.40;5.35;;;;;;;29.35;46.84;96281.97;6277265;22;20029;-86
2023/10/12 11:07:29;;;;;;;10.07;5.18;;;;;;;29.55;46.56;96278.38;6279465;22;20003;-86
2023/10/12 11:10:06;;;;;;;10.00;4.63;;;;;;;29.97;44.76;96274.31;6284807;22;20069;-85
2023/10/12 11:12:36;;;;;;;14.23;5.55;;;;;;;31.33;42.57;96266.31;6278426;22;20662;-86
2023/10/12 11:15:05;;;;;;;9.65;5.00;;;;;;;31.58;42.27;96267.88;6276550;22;20078;-86
2023/10/12 11:17:40;;;;;;;12.90;4.75;;;;;;;31.17;42.25;96273.81;6277092;22;20456;-86
2023/10/12 11:20:38;;;;;;;12.57;5.60;;;;;;;31.50;41.62;96271.25;6276388;22;20011;-85
2023/10/12 11:23:08;;;;;;;13.88;5.30;;;;;;;31.24;41.88;96263.41;6301158;22;20003;-85
2023/10/12 11:25:39;;;;;;;10.57;5.53;;;;;;;31.58;41.93;96273.31;6300966;22;19999;-85
2023/10/12 11:28:19;;;;;;;8.48;4.15;;;;;;;30.15;43.26;96270.16;6277031;22;20106;-86
2023/10/12 11:30:45;;;;;;;9.00;4.80;;;;;;;29.84;43.92;96264.09;6277862;22;20334;-85
2023/10/12 11:33:11;;;;;;;10.27;4.85;;;;;;;30.16;43.33;96271.75;6277322;22;20074;-87
2023/10/12 11:35:40;;;;;;;11.50;5.30;;;;;;;30.62;42.84;96262.41;6276564;22;20003;-86
2023/10/12 11:38:17;;;;;;;12.48;4.75;;;;;;;30.50;43.43;96262.81;6303014;22;20006;-86
2023/10/12 11:40:52;;;;;;;12.88;4.72;;;;;;;30.42;43.63;96266.16;6276831;22;20003;-86
2023/10/12 11:43:49;;;;;;;12.80;5.93;;;;;;;30.96;42.62;96252.31;6281853;22;20007;-86
2023/10/12 11:46:15;;;;;;;12.13;5.18;;;;;;;30.20;42.89;96255.75;6291322;22;20003;-85
2023/10/12 11:48:40;;;;;;;9.57;4.35;;;;;;;30.15;43.03;96258.47;6277345;22;20003;-85
2023/10/12 11:51:11;;;;;;;10.90;5.05;;;;;;;29.73;42.69;96257.94;6277570;22;20450;-85
2023/10/12 11:53:41;;;;;;;12.77;5.03;;;;;;;29.71;42.95;96252.03;6275759;22;20126;-85
2023/10/12 11:56:14;;;;;;;10.43;5.05;;;;;;;30.28;42.64;96261.38;6276131;22;20007;-86
2023/10/12 11:58:41;;;;;;;11.20;4.85;;;;;;;30.17;43.82;96259.00;6276389;22;20015;-85
2023/10/12 12:01:10;;;;;;;9.15;4.50;;;;;;;30.70;42.44;96261.81;6275895;22;19999;-85
2023/10/12 12:03:45;;;;;;;17.17;4.70;;;;;;;30.09;43.18;96265.84;6275304;22;20007;-86
2023/10/12 12:06:18;;;;;;;10.30;4.85;;;;;;;29.45;43.90;96272.19;6276280;22;20045;-85
2023/10/12 12:08:45;;;;;;;12.43;4.88;;;;;;;29.26;44.88;96270.09;6276855;22;20427;-85
2023/10/12 12:11:19;;;;;;;12.40;4.78;;;;;;;29.18;44.67;96265.25;6276477;22;20007;-85
2023/10/12 12:13:57;;;;;;;11.52;5.22;;;;;;;29.58;45.18;96279.72;6300173;22;20808;-85
2023/10/12 12:16:23;;;;;;;13.70;5.80;;;;;;;29.65;44.64;96263.16;6275774;22;20007;-84
2023/10/12 12:18:52;;;;;;;12.75;5.05;;;;;;;29.66;44.40;96273.72;6275639;22;20492;-86
2023/10/12 12:21:29;;;;;;;11.95;5.18;;;;;;;29.57;45.28;96273.44;6274455;22;20007;-86
2023/10/12 12:24:25;;;;;;;14.23;5.30;;;;;;;29.46;45.43;96284.63;6276652;22;20537;-86
2023/10/12 12:27:01;;;;;;;11.43;5.30;;;;;;;29.07;45.07;96282.63;6277453;22;20090;-86
2023/10/12 12:29:27;;;;;;;9.68;4.88;;;;;;;29.21;45.47;96286.38;6276997;22;20449;-85
2023/10/12 12:32:06;;;;;;;13.18;5.03;;;;;;;29.12;45.52;96288.84;6303428;22;19999;-85
2023/10/12 12:34:47;;;;;;;11.35;4.40;;;;;;;29.41;44.86;96287.34;6302811;22;20003;-86
2023/10/12 12:37:17;;;;;;;9.48;4.75;;;;;;;29.41;45.77;96287.34;6277753;22;20060;-86
2023/10/12 12:39:43;;;;;;;11.18;4.90;;;;;;;29.49;45.63;96281.38;6277132;22;20018;-85
2023/10/12 12:42:09;;;;;;;8.55;4.65;;;;;;;29.64;44.82;96278.59;6277985;22;20003;-86
2023/10/12 12:44:36;;;;;;;8.60;4.40;;;;;;;28.92;46.72;96285.34;6285686;22;19995;-86
2023/10/12 12:47:02;;;;;;;7.28;4.72;;;;;;;28.66;46.55;96282.69;6277106;22;20009;-86
2023/10/12 12:49:43;;;;;;;12.60;4.78;;;;;;;28.89;48.82;96278.59;6277091;22;20042;-86
2023/10/12 12:52:09;;;;;;;9.60;5.43;;;;;;;28.55;48.65;96281.09;6278745;22;20015;-86
2023/10/12 12:54:35;;;;;;;8.73;4.75;;;;;;;28.41;47.93;96273.53;6279232;22;20014;-86
2023/10/12 12:57:00;;;;;;;13.63;5.55;;;;;;;28.95;47.50;96273.97;6279268;22;19999;-86
2023/10/12 12:59:27;;;;;;;10.98;5.45;;;;;;;28.89;47.29;96282.09;6281368;22;20021;-86
2023/10/12 13:01:57;;;;;;;13.13;5.47;;;;;;;29.08;47.04;96284.25;6279443;22;20445;-89
2023/10/12 13:04:23;;;;;;;56.65;9.27;;;;;;;29.07;48.24;96282.63;6278938;22;20026;-89
2023/10/12 13:06:51;;;;;;;66.22;11.35;;;;;;;29.13;47.80;96278.81;6305105;22;20007;-89
2023/10/12 13:09:40;;;;;;;13.63;4.85;;;;;;;28.99;47.59;96280.47;6278458;22;20003;-89
2023/10/12 13:12:06;;;;;;;22.65;5.53;;;;;;;29.75;46.80;96280.19;6302877;22;20003;-89
2023/10/12 13:14:32;;;;;;;10.95;4.90;;;;;;;28.94;48.22;96278.59;6277627;22;20107;-87
2023/10/12 13:16:58;;;;;;;22.08;6.35;;;;;;;29.83;47.26;96281.47;6276846;22;20465;-86
2023/10/12 13:19:24;;;;;;;17.25;5.68;;;;;;;29.36;47.63;96275.47;6277331;22;19999;-87
2023/10/12 13:21:50;;;;;;;20.25;5.60;;;;;;;28.75;49.77;96281.06;6302574;22;20557;-85
2023/10/12 13:24:16;;;;;;;14.35;6.32;;;;;;;29.26;48.91;96274.69;6276880;22;19999;-85
2023/10/12 13:26:47;;;;;;;16.88;6.10;;;;;;;29.46;48.20;96271.91;6302928;22;20322;-85
2023/10/12 13:29:14;;;;;;;41.13;7.35;;;;;;;29.97;46.72;96262.66;6277473;22;20003;-85
2023/10/12 13:31:40;;;;;;;16.40;5.80;;;;;;;29.10;48.83;96271.22;6277184;22;20007;-85
2023/10/12 13:34:10;;;;;;;19.98;5.97;;;;;;;29.26;48.29;96272.81;6301529;22;20029;-84
2023/10/12 13:36:39;;;;;;;32.25;5.57;;;;;;;29.23;48.81;96286.09;6276590;22;20476;-84
2023/10/12 13:39:09;;;;;;;11.40;4.63;;;;;;;29.45;48.35;96266.78;6276258;22;20003;-84
2023/10/12 13:41:35;;;;;;;16.27;5.55;;;;;;;29.44;49.53;96260.50;6276432;22;20003;-85
2023/10/12 13:44:05;;;;;;;10.27;5.55;;;;;;;28.71;50.16;96258.34;6275353;22;20010;-84
2023/10/12 13:46:32;;;;;;;13.80;5.50;;;;;;;28.47;51.96;96251.88;6276759;22;20003;-83
2023/10/12 13:48:58;;;;;;;18.10;6.00;;;;;;;29.10;52.75;96241.44;6302480;22;20003;-84
2023/10/12 13:51:37;;;;;;;31.15;14.68;;;;;;;29.17;53.96;96208.66;6301703;22;20126;-84
2023/10/12 13:54:04;;;;;;;44.03;9.52;;;;;;;29.66;56.32;96222.22;6303301;22;19999;-83
2023/10/12 13:56:30;;;;;;;16.33;6.65;;;;;;;29.24;56.37;96234.38;6278545;22;20060;-87
2023/10/12 13:58:58;;;;;;;32.05;7.43;;;;;;;29.65;56.04;96234.16;6305290;22;20008;-87
2023/10/12 14:01:26;;;;;;;12.45;5.50;;;;;;;29.79;55.20;96218.06;6279229;22;20023;-87
2023/10/12 14:03:55;;;;;;;25.35;7.50;;;;;;;30.11;53.72;96214.81;6305420;22;20021;-87
2023/10/12 14:06:24;;;;;;;29.40;7.07;;;;;;;29.79;55.86;96208.03;6306912;22;20004;-87
2023/10/12 14:08:54;;;;;;;13.25;7.50;;;;;;;30.05;51.06;96213.28;6305400;22;19996;-87
2023/10/12 14:11:20;;;;;;;21.50;6.50;;;;;;;29.72;51.67;96202.13;6279855;22;20014;-87
2023/10/12 14:13:47;;;;;;;14.00;6.55;;;;;;;29.35;50.77;96208.84;6282042;22;20003;-87
2023/10/12 14:16:15;;;;;;;18.70;6.93;;;;;;;29.61;50.58;96211.41;6278380;22;20613;-87
2023/10/12 14:18:41;;;;;;;17.55;8.18;;;;;;;29.36;53.29;96204.22;6279925;22;20311;-87
2023/10/12 14:21:13;;;;;;;12.57;6.82;;;;;;;29.67;51.37;96202.16;6302682;22;20003;-84
2023/10/12 14:23:43;;;;;;;12.40;5.75;;;;;;;29.29;50.42;96201.03;6277415;22;20003;-84